Time;durP1;ratioP1;P1;durP2;ratioP2;P2;SDS_P1;SDS_P2;PMS_P1;PMS_P2;Temp;Humidity;BMP_temperature;BMP_pressure;BME280_temperature;BME280_humidity;BME280_pressure;Samples;Min_cycle;Max_cycle;Signal;HPM_P1;HPM_P2
2023/03/06 00:02:18;;;;;;;5.15;3.50;;;;;;;;;;5062833;28;20429;-82
2023/03/06 00:04:46;;;;;;;4.20;2.97;;;;;;;;;;5062298;28;20427;-82
2023/03/06 00:07:13;;;;;;;4.95;3.20;;;;;;;;;;5062002;28;20440;-82
2023/03/06 00:09:39;;;;;;;3.80;3.10;;;;;;;;;;5059425;28;20945;-81
2023/03/06 00:12:06;;;;;;;4.80;3.40;;;;;;;;;;5063167;28;20423;-81
2023/03/06 00:14:32;;;;;;;5.10;3.30;;;;;;;;;;5061095;28;20457;-81
2023/03/06 00:16:58;;;;;;;4.13;3.30;;;;;;;;;;5059735;28;20916;-81
2023/03/06 00:19:25;;;;;;;5.25;3.70;;;;;;;;;;5062858;28;20427;-82
2023/03/06 00:21:53;;;;;;;5.45;3.92;;;;;;;;;;5062279;28;20411;-80
2023/03/06 00:24:20;;;;;;;6.28;3.72;;;;;;;;;;5063315;28;20508;-81
2023/03/06 00:26:46;;;;;;;4.57;3.10;;;;;;;;;;5059709;28;20425;-80
2023/03/06 00:29:13;;;;;;;5.40;3.40;;;;;;;;;;5064648;28;20410;-80
2023/03/06 00:31:39;;;;;;;4.63;3.30;;;;;;;;;;5059731;28;20426;-81
2023/03/06 00:34:05;;;;;;;4.20;3.60;;;;;;;;;;5059588;28;20429;-81
2023/03/06 00:36:32;;;;;;;5.38;4.00;;;;;;;;;;5063371;28;20800;-81
2023/03/06 00:39:00;;;;;;;3.80;3.40;;;;;;;;;;5062915;28;21076;-81
2023/03/06 00:41:27;;;;;;;5.00;3.97;;;;;;;;;;5061284;28;20920;-81
2023/03/06 00:43:55;;;;;;;5.63;3.90;;;;;;;;;;5061606;28;20492;-80
2023/03/06 00:46:21;;;;;;;4.88;3.70;;;;;;;;;;5060163;28;20419;-82
2023/03/06 00:48:47;;;;;;;4.68;3.70;;;;;;;;;;5061071;28;20433;-81
2023/03/06 00:51:18;;;;;;;4.70;3.47;;;;;;;;;;5059532;28;20422;-81
2023/03/06 00:53:44;;;;;;;5.10;3.60;;;;;;;;;;5062407;28;20411;-81
2023/03/06 00:56:12;;;;;;;5.82;3.90;;;;;;;;;;5062445;28;20424;-82
2023/03/06 00:58:38;;;;;;;5.93;3.90;;;;;;;;;;5060986;28;20417;-81
2023/03/06 01:01:05;;;;;;;7.03;4.13;;;;;;;;;;5062997;28;20951;-81
2023/03/06 01:03:32;;;;;;;5.38;3.80;;;;;;;;;;5062489;28;20429;-81
2023/03/06 01:05:58;;;;;;;6.38;3.72;;;;;;;;;;5064170;28;20428;-81
2023/03/06 01:08:24;;;;;;;8.75;4.70;;;;;;;;;;5064122;28;20421;-81
2023/03/06 01:10:51;;;;;;;6.10;4.30;;;;;;;;;;5059485;28;20428;-81
2023/03/06 01:13:19;;;;;;;5.82;3.72;;;;;;;;;;5058093;28;20436;-80
2023/03/06 01:15:45;;;;;;;4.73;3.00;;;;;;;;;;5058770;28;20412;-81
2023/03/06 01:18:11;;;;;;;3.80;2.20;;;;;;;;;;5062006;28;20407;-80
2023/03/06 01:20:38;;;;;;;3.38;1.77;;;;;;;;;;5061912;28;20802;-81
2023/03/06 01:23:04;;;;;;;3.10;2.08;;;;;;;;;;5065192;28;20437;-82
2023/03/06 01:25:31;;;;;;;3.23;1.80;;;;;;;;;;5061346;28;20415;-80
2023/03/06 01:27:57;;;;;;;2.20;1.73;;;;;;;;;;5061209;28;20880;-82
2023/03/06 01:30:25;;;;;;;2.58;2.00;;;;;;;;;;5059670;28;20409;-81
2023/03/06 01:32:51;;;;;;;3.65;2.10;;;;;;;;;;5060345;28;20622;-81
2023/03/06 01:35:18;;;;;;;2.70;2.00;;;;;;;;;;5060729;28;20547;-81
2023/03/06 01:37:44;;;;;;;3.33;2.00;;;;;;;;;;5061609;28;20460;-81
2023/03/06 01:40:12;;;;;;;3.67;2.10;;;;;;;;;;5058384;28;20413;-81
2023/03/06 01:42:39;;;;;;;2.45;1.60;;;;;;;;;;5057935;28;20424;-81
2023/03/06 01:45:06;;;;;;;4.53;2.15;;;;;;;;;;5063328;28;20436;-81
2023/03/06 01:47:34;;;;;;;3.45;1.55;;;;;;;;;;5064438;28;20519;-82
2023/03/06 01:50:02;;;;;;;1.98;1.42;;;;;;;;;;5056372;28;20900;-82
2023/03/06 01:52:30;;;;;;;1.60;1.30;;;;;;;;;;5061869;28;20432;-81
2023/03/06 01:54:58;;;;;;;1.50;1.20;;;;;;;;;;5060901;28;20429;-81
2023/03/06 01:57:26;;;;;;;2.22;1.20;;;;;;;;;;5059387;28;20424;-81
2023/03/06 01:59:56;;;;;;;2.15;1.00;;;;;;;;;;5059827;28;20416;-82
2023/03/06 02:02:22;;;;;;;2.70;1.40;;;;;;;;;;5060137;28;20422;-81
2023/03/06 02:04:50;;;;;;;2.10;1.00;;;;;;;;;;5067747;28;20915;-79
2023/03/06 02:07:18;;;;;;;2.67;1.38;;;;;;;;;;5051681;28;20436;-81
2023/03/06 02:09:45;;;;;;;1.50;1.02;;;;;;;;;;5065675;28;20407;-82
2023/03/06 02:12:12;;;;;;;2.40;1.30;;;;;;;;;;5062365;28;20421;-82
2023/03/06 02:14:39;;;;;;;2.27;1.50;;;;;;;;;;5063577;28;20919;-82
2023/03/06 02:17:07;;;;;;;2.08;1.30;;;;;;;;;;5066854;28;20438;-81
2023/03/06 02:19:37;;;;;;;1.67;1.20;;;;;;;;;;5062898;28;20435;-82
2023/03/06 02:22:06;;;;;;;2.33;1.30;;;;;;;;;;5067173;28;20427;-82
2023/03/06 02:24:36;;;;;;;2.67;1.50;;;;;;;;;;5063198;28;20430;-80
2023/03/06 02:27:04;;;;;;;2.10;1.40;;;;;;;;;;5063607;28;20430;-81
2023/03/06 02:29:31;;;;;;;4.45;2.03;;;;;;;;;;5064982;28;20797;-81
2023/03/06 02:31:57;;;;;;;3.80;1.50;;;;;;;;;;5062774;28;20941;-81
2023/03/06 02:34:45;;;;;;;1.88;1.40;;;;;;;;;;5067280;28;20425;-81
2023/03/06 02:37:12;;;;;;;2.33;1.60;;;;;;;;;;5061218;28;20427;-81
2023/03/06 02:39:40;;;;;;;2.90;1.92;;;;;;;;;;5065190;28;20431;-81
2023/03/06 02:42:07;;;;;;;2.80;1.50;;;;;;;;;;5061107;28;20430;-81
2023/03/06 02:44:34;;;;;;;2.35;1.67;;;;;;;;;;5061237;28;20446;-81
2023/03/06 02:47:01;;;;;;;2.53;2.10;;;;;;;;;;5064207;28;20445;-81
2023/03/06 02:49:28;;;;;;;2.00;1.70;;;;;;;;;;5063760;28;20434;-81
2023/03/06 02:51:54;;;;;;;2.50;1.83;;;;;;;;;;5063205;28;20427;-81
2023/03/06 02:54:20;;;;;;;2.85;2.10;;;;;;;;;;5062461;28;20438;-80
2023/03/06 02:56:47;;;;;;;3.13;2.30;;;;;;;;;;5066297;28;20418;-81
2023/03/06 02:59:14;;;;;;;2.70;2.10;;;;;;;;;;5063801;28;20525;-81
2023/03/06 03:01:41;;;;;;;3.57;3.03;;;;;;;;;;5064017;28;20473;-81
2023/03/06 03:04:07;;;;;;;3.03;2.00;;;;;;;;;;5061572;28;20421;-81
2023/03/06 03:06:35;;;;;;;3.00;2.45;;;;;;;;;;5061875;28;20889;-81
2023/03/06 03:09:02;;;;;;;3.95;2.70;;;;;;;;;;5064096;28;20411;-81
2023/03/06 03:11:29;;;;;;;3.70;2.63;;;;;;;;;;5065315;28;20418;-81
2023/03/06 03:13:55;;;;;;;5.30;3.03;;;;;;;;;;5065738;28;20444;-81
2023/03/06 03:16:23;;;;;;;2.67;2.28;;;;;;;;;;5063134;28;20423;-81
2023/03/06 03:18:50;;;;;;;3.92;2.90;;;;;;;;;;5065226;28;20541;-81
2023/03/06 03:21:16;;;;;;;5.68;3.00;;;;;;;;;;5061121;28;20413;-81
2023/03/06 03:23:43;;;;;;;5.35;3.17;;;;;;;;;;5061966;28;20502;-81
2023/03/06 03:26:11;;;;;;;3.72;2.50;;;;;;;;;;5063102;28;20797;-81
2023/03/06 03:28:37;;;;;;;3.92;2.97;;;;;;;;;;5064858;28;20416;-81
2023/03/06 03:31:05;;;;;;;4.53;2.90;;;;;;;;;;5061769;28;20809;-81
2023/03/06 03:33:33;;;;;;;4.47;2.75;;;;;;;;;;5064197;28;20498;-81
2023/03/06 03:35:59;;;;;;;3.80;2.70;;;;;;;;;;5060887;28;20417;-81
2023/03/06 03:38:26;;;;;;;3.35;2.60;;;;;;;;;;5062194;28;20502;-81
2023/03/06 03:40:54;;;;;;;3.30;2.50;;;;;;;;;;5064250;28;20423;-81
2023/03/06 03:43:20;;;;;;;3.00;2.30;;;;;;;;;;5062960;28;20408;-81
2023/03/06 03:45:46;;;;;;;5.20;2.50;;;;;;;;;;5066196;28;20420;-81
2023/03/06 03:48:13;;;;;;;4.20;2.40;;;;;;;;;;5062603;28;20428;-81
2023/03/06 03:50:40;;;;;;;3.80;2.95;;;;;;;;;;5062238;28;20416;-81
2023/03/06 03:53:07;;;;;;;3.80;2.78;;;;;;;;;;5060383;28;20814;-81
2023/03/06 03:55:33;;;;;;;5.13;2.30;;;;;;;;;;5063538;28;20417;-81
2023/03/06 03:58:00;;;;;;;3.38;2.78;;;;;;;;;;5061516;28;20436;-81
2023/03/06 04:00:26;;;;;;;4.95;2.58;;;;;;;;;;5058830;28;20404;-81
2023/03/06 04:02:52;;;;;;;4.07;2.63;;;;;;;;;;5058306;28;20446;-81
2023/03/06 04:05:19;;;;;;;2.92;2.42;;;;;;;;;;5058799;28;20404;-81
2023/03/06 04:07:47;;;;;;;3.50;2.50;;;;;;;;;;5063361;28;20467;-81
2023/03/06 04:10:13;;;;;;;3.63;2.50;;;;;;;;;;5062356;28;20418;-81
2023/03/06 04:12:39;;;;;;;3.22;2.10;;;;;;;;;;5062105;28;20424;-81
2023/03/06 04:15:07;;;;;;;3.85;2.30;;;;;;;;;;5059610;28;20484;-80
2023/03/06 04:17:33;;;;;;;7.37;3.13;;;;;;;;;;5062184;28;20413;-81
2023/03/06 04:20:00;;;;;;;4.60;2.40;;;;;;;;;;5061322;28;20420;-81
2023/03/06 04:22:27;;;;;;;4.43;2.40;;;;;;;;;;5060085;28;20419;-81
2023/03/06 04:24:55;;;;;;;6.63;2.40;;;;;;;;;;5063099;28;20470;-81
2023/03/06 04:27:21;;;;;;;5.88;2.60;;;;;;;;;;5060437;28;20417;-81
2023/03/06 04:29:48;;;;;;;6.30;2.97;;;;;;;;;;5059818;28;20436;-81
2023/03/06 04:32:14;;;;;;;4.40;3.22;;;;;;;;;;5061654;28;20436;-81
2023/03/06 04:34:40;;;;;;;6.15;3.65;;;;;;;;;;5060492;28;20439;-81
2023/03/06 04:37:07;;;;;;;4.23;3.40;;;;;;;;;;5061948;28;20413;-81
2023/03/06 04:39:35;;;;;;;4.47;3.00;;;;;;;;;;5059407;28;20436;-81
2023/03/06 04:42:03;;;;;;;4.68;3.25;;;;;;;;;;5060339;28;20433;-81
2023/03/06 04:44:29;;;;;;;4.75;2.63;;;;;;;;;;5063055;28;20427;-81
2023/03/06 04:46:56;;;;;;;4.80;3.20;;;;;;;;;;5059879;28;20429;-81
2023/03/06 04:49:22;;;;;;;4.38;3.00;;;;;;;;;;5063192;28;20422;-81
2023/03/06 04:51:48;;;;;;;4.70;3.10;;;;;;;;;;5057235;28;20938;-81
2023/03/06 04:54:15;;;;;;;4.57;3.30;;;;;;;;;;5060831;28;20803;-81
2023/03/06 04:56:41;;;;;;;6.65;3.30;;;;;;;;;;5059733;28;20427;-81
2023/03/06 04:59:09;;;;;;;6.25;3.60;;;;;;;;;;5062247;28;20411;-81
2023/03/06 05:01:37;;;;;;;6.05;3.70;;;;;;;;;;5054004;28;20416;-81
2023/03/06 05:04:03;;;;;;;9.57;4.47;;;;;;;;;;5062781;28;20427;-81
2023/03/06 05:06:30;;;;;;;6.63;3.67;;;;;;;;;;5057878;28;20490;-81
2023/03/06 05:08:58;;;;;;;6.20;3.90;;;;;;;;;;5059875;28;20435;-81
2023/03/06 05:11:24;;;;;;;7.70;3.65;;;;;;;;;;5063364;28;20431;-81
2023/03/06 05:13:51;;;;;;;5.22;4.05;;;;;;;;;;5062464;28;20415;-81
2023/03/06 05:16:19;;;;;;;5.43;3.47;;;;;;;;;;5064278;28;20420;-81
2023/03/06 05:18:45;;;;;;;8.05;3.85;;;;;;;;;;5061255;28;20518;-81
2023/03/06 05:21:12;;;;;;;7.30;3.90;;;;;;;;;;5061037;28;20416;-81
2023/03/06 05:23:39;;;;;;;4.53;3.33;;;;;;;;;;5059849;28;20435;-81
2023/03/06 05:26:07;;;;;;;6.43;3.40;;;;;;;;;;5060450;28;21050;-81
2023/03/06 05:28:33;;;;;;;3.40;3.00;;;;;;;;;;5063586;28;20415;-81
2023/03/06 05:31:00;;;;;;;5.18;3.10;;;;;;;;;;5062255;28;20794;-81
2023/03/06 05:33:27;;;;;;;4.30;2.60;;;;;;;;;;5062363;28;20427;-81
2023/03/06 05:35:54;;;;;;;7.13;3.00;;;;;;;;;;5058736;28;20787;-81
2023/03/06 05:38:21;;;;;;;3.88;2.47;;;;;;;;;;5062632;28;20903;-81
2023/03/06 05:40:49;;;;;;;3.53;2.43;;;;;;;;;;5062750;28;20432;-79
2023/03/06 05:43:16;;;;;;;5.20;2.90;;;;;;;;;;5065223;28;20435;-81
2023/03/06 05:45:43;;;;;;;4.10;2.50;;;;;;;;;;5064027;28;20420;-81
2023/03/06 05:48:10;;;;;;;5.25;2.88;;;;;;;;;;5065268;28;20432;-81
2023/03/06 05:50:38;;;;;;;4.20;2.30;;;;;;;;;;5061856;28;20422;-81
2023/03/06 05:53:04;;;;;;;4.93;2.80;;;;;;;;;;5063928;28;20440;-81
2023/03/06 05:55:31;;;;;;;5.30;2.55;;;;;;;;;;5063939;28;20415;-81
2023/03/06 05:57:58;;;;;;;6.30;2.60;;;;;;;;;;5067914;28;20423;-81
2023/03/06 06:00:24;;;;;;;5.18;2.60;;;;;;;;;;5065451;28;20433;-81
2023/03/06 06:02:51;;;;;;;5.70;2.45;;;;;;;;;;5064756;28;20428;-81
2023/03/06 06:05:17;;;;;;;4.90;2.60;;;;;;;;;;5063151;28;20406;-81
2023/03/06 06:07:45;;;;;;;5.90;3.70;;;;;;;;;;5064134;28;20428;-81
2023/03/06 06:10:12;;;;;;;5.88;2.80;;;;;;;;;;5062107;28;20419;-81
2023/03/06 06:12:39;;;;;;;5.80;3.30;;;;;;;;;;5064675;28;20429;-81
2023/03/06 06:15:06;;;;;;;6.50;3.27;;;;;;;;;;5064147;28;20427;-81
2023/03/06 06:17:33;;;;;;;4.30;2.80;;;;;;;;;;5060990;28;20428;-80
2023/03/06 06:19:59;;;;;;;5.88;3.58;;;;;;;;;;5062957;28;20436;-81
2023/03/06 06:22:26;;;;;;;5.80;3.38;;;;;;;;;;5063199;28;20431;-81
2023/03/06 06:24:53;;;;;;;5.50;3.30;;;;;;;;;;5063452;28;20429;-81
2023/03/06 06:27:20;;;;;;;8.57;3.78;;;;;;;;;;5065662;28;20425;-81
2023/03/06 06:29:49;;;;;;;6.15;3.90;;;;;;;;;;5062633;28;20435;-81
2023/03/06 06:32:15;;;;;;;6.03;4.07;;;;;;;;;;5062069;28;20956;-81
2023/03/06 06:34:42;;;;;;;5.93;3.85;;;;;;;;;;5064696;28;20420;-81
2023/03/06 06:37:09;;;;;;;8.82;4.80;;;;;;;;;;5061606;28;20425;-81
2023/03/06 06:39:37;;;;;;;7.20;4.28;;;;;;;;;;5068529;28;20433;-82
2023/03/06 06:42:07;;;;;;;6.97;3.80;;;;;;;;;;5060335;28;20969;-81
2023/03/06 06:44:33;;;;;;;7.50;4.10;;;;;;;;;;5061000;28;20497;-81
2023/03/06 06:46:59;;;;;;;5.83;3.40;;;;;;;;;;5063699;28;20417;-82
2023/03/06 06:49:26;;;;;;;5.60;3.78;;;;;;;;;;5061716;28;20421;-81
2023/03/06 06:51:52;;;;;;;5.70;3.40;;;;;;;;;;5063171;28;20419;-82
2023/03/06 06:54:21;;;;;;;3.80;3.13;;;;;;;;;;5065771;28;20478;-82
2023/03/06 06:56:47;;;;;;;5.60;3.72;;;;;;;;;;5062450;28;20830;-82
2023/03/06 06:59:15;;;;;;;5.43;3.90;;;;;;;;;;5063024;28;20424;-82
2023/03/06 07:01:41;;;;;;;6.00;4.05;;;;;;;;;;5064200;28;20425;-82
2023/03/06 07:04:07;;;;;;;5.97;3.90;;;;;;;;;;5063680;28;20462;-82
2023/03/06 07:06:34;;;;;;;6.90;4.10;;;;;;;;;;5063614;28;20490;-80
2023/03/06 07:09:00;;;;;;;6.05;3.78;;;;;;;;;;5063172;28;22386;-81
2023/03/06 07:11:27;;;;;;;6.55;4.60;;;;;;;;;;5064063;28;20504;-81
2023/03/06 07:13:54;;;;;;;9.00;4.20;;;;;;;;;;5059008;28;20440;-81
2023/03/06 07:16:22;;;;;;;6.45;4.10;;;;;;;;;;5060135;28;20982;-81
2023/03/06 07:18:48;;;;;;;7.95;4.70;;;;;;;;;;5063369;28;20411;-81
2023/03/06 07:21:16;;;;;;;8.15;4.30;;;;;;;;;;5064233;28;20418;-81
2023/03/06 07:23:43;;;;;;;6.87;4.40;;;;;;;;;;5063489;28;20423;-81
2023/03/06 07:26:10;;;;;;;7.97;4.63;;;;;;;;;;5059229;28;20430;-81
2023/03/06 07:28:36;;;;;;;8.25;4.55;;;;;;;;;;5063724;28;20437;-81
2023/03/06 07:31:07;;;;;;;7.70;4.70;;;;;;;;;;5062943;28;20440;-81
2023/03/06 07:33:35;;;;;;;7.00;4.50;;;;;;;;;;5061113;28;20794;-81
2023/03/06 07:36:01;;;;;;;5.00;4.20;;;;;;;;;;5060060;28;20926;-81
2023/03/06 07:38:27;;;;;;;6.75;4.13;;;;;;;;;;5058434;28;20435;-81
2023/03/06 07:40:54;;;;;;;7.50;4.85;;;;;;;;;;5060979;28;20413;-81
2023/03/06 07:43:20;;;;;;;6.50;4.23;;;;;;;;;;5065234;28;20438;-81
2023/03/06 07:45:47;;;;;;;6.18;4.60;;;;;;;;;;5060979;28;20427;-81
2023/03/06 07:48:13;;;;;;;9.38;5.20;;;;;;;;;;5062578;28;20420;-81
2023/03/06 07:50:44;;;;;;;8.93;5.55;;;;;;;;;;5059639;28;20814;-81
2023/03/06 07:53:10;;;;;;;6.80;5.63;;;;;;;;;;5062484;28;20938;-81
2023/03/06 07:55:39;;;;;;;8.68;6.10;;;;;;;;;;5059893;28;20415;-81
2023/03/06 07:58:05;;;;;;;9.43;6.10;;;;;;;;;;5060048;28;20435;-81
2023/03/06 08:00:32;;;;;;;8.50;6.50;;;;;;;;;;5058888;28;20958;-81
2023/03/06 08:02:58;;;;;;;8.23;6.90;;;;;;;;;;5061362;28;20908;-81
2023/03/06 08:05:25;;;;;;;9.70;6.45;;;;;;;;;;5062085;28;20450;-81
2023/03/06 08:07:52;;;;;;;13.85;7.20;;;;;;;;;;5065098;28;20423;-81
2023/03/06 08:10:19;;;;;;;11.45;7.20;;;;;;;;;;5061325;28;20912;-81
2023/03/06 08:12:45;;;;;;;13.70;7.93;;;;;;;;;;5063501;28;20414;-81
2023/03/06 08:15:12;;;;;;;10.10;7.20;;;;;;;;;;5058869;28;20406;-81
2023/03/06 08:17:38;;;;;;;12.13;7.97;;;;;;;;;;5061011;28;20431;-81
2023/03/06 08:20:05;;;;;;;9.40;7.20;;;;;;;;;;5064709;28;20431;-81
2023/03/06 08:22:32;;;;;;;10.40;6.72;;;;;;;;;;5063324;28;20436;-81
2023/03/06 08:24:59;;;;;;;9.93;6.20;;;;;;;;;;5063450;28;20412;-81
2023/03/06 08:27:26;;;;;;;8.52;6.22;;;;;;;;;;5061332;28;20913;-81
2023/03/06 08:29:52;;;;;;;7.70;5.30;;;;;;;;;;5063831;28;20417;-81
2023/03/06 08:32:18;;;;;;;8.40;4.80;;;;;;;;;;5057854;28;20423;-81
2023/03/06 08:34:45;;;;;;;7.93;4.82;;;;;;;;;;5062690;28;20428;-81
2023/03/06 08:37:11;;;;;;;8.32;5.50;;;;;;;;;;5060612;28;20424;-81
2023/03/06 08:39:38;;;;;;;6.05;4.63;;;;;;;;;;5061804;28;20411;-81
2023/03/06 08:42:06;;;;;;;10.95;5.10;;;;;;;;;;5065049;28;20422;-81
2023/03/06 08:44:33;;;;;;;7.07;4.90;;;;;;;;;;5060326;28;20440;-81
2023/03/06 08:46:59;;;;;;;6.70;4.65;;;;;;;;;;5059696;28;20417;-81
2023/03/06 08:49:26;;;;;;;7.90;5.10;;;;;;;;;;5060028;28;20427;-81
2023/03/06 08:51:52;;;;;;;7.70;5.00;;;;;;;;;;5058933;28;20443;-81
2023/03/06 08:54:18;;;;;;;6.50;4.85;;;;;;;;;;5061558;28;20407;-81
2023/03/06 08:56:46;;;;;;;5.40;4.20;;;;;;;;;;5061140;28;20428;-81
2023/03/06 08:59:13;;;;;;;4.45;3.80;;;;;;;;;;5054287;28;20432;-81
2023/03/06 09:01:40;;;;;;;7.15;4.60;;;;;;;;;;5060117;28;21046;-81
2023/03/06 09:04:08;;;;;;;7.20;4.40;;;;;;;;;;5062068;28;20422;-81
2023/03/06 09:06:36;;;;;;;5.18;4.20;;;;;;;;;;5062258;28;20917;-80
2023/03/06 09:09:03;;;;;;;5.28;3.90;;;;;;;;;;5066742;28;20404;-81
2023/03/06 09:11:29;;;;;;;5.63;4.05;;;;;;;;;;5058856;28;20407;-81
2023/03/06 09:13:56;;;;;;;5.85;4.00;;;;;;;;;;5062423;28;20411;-81
2023/03/06 09:16:24;;;;;;;5.10;4.17;;;;;;;;;;5061628;28;20511;-81
2023/03/06 09:18:52;;;;;;;7.82;4.70;;;;;;;;;;5059680;28;20426;-81
2023/03/06 09:21:19;;;;;;;7.60;5.30;;;;;;;;;;5060268;28;20456;-81
2023/03/06 09:23:45;;;;;;;8.00;5.30;;;;;;;;;;5063052;28;20427;-81
2023/03/06 09:26:12;;;;;;;7.85;5.70;;;;;;;;;;5060014;28;20416;-81
2023/03/06 09:28:39;;;;;;;7.95;5.65;;;;;;;;;;5062959;28;20425;-81
2023/03/06 09:31:07;;;;;;;9.40;6.38;;;;;;;;;;5065081;28;20411;-81
2023/03/06 09:33:35;;;;;;;11.68;7.13;;;;;;;;;;5059983;28;20415;-80
2023/03/06 09:36:02;;;;;;;9.20;6.20;;;;;;;;;;5061751;28;20427;-81
2023/03/06 09:38:30;;;;;;;12.05;6.43;;;;;;;;;;5060454;28;20428;-81
2023/03/06 09:41:04;;;;;;;10.63;6.57;;;;;;;;;;5062951;28;20420;-81
2023/03/06 09:43:31;;;;;;;11.38;7.53;;;;;;;;;;5060091;28;20505;-81
2023/03/06 09:45:58;;;;;;;9.75;6.22;;;;;;;;;;5060650;28;20418;-81
2023/03/06 09:48:30;;;;;;;8.30;6.10;;;;;;;;;;5060937;28;20420;-80
2023/03/06 09:51:02;;;;;;;9.18;6.00;;;;;;;;;;5062265;28;20412;-81
2023/03/06 09:53:37;;;;;;;8.32;6.25;;;;;;;;;;5061844;28;20444;-81
2023/03/06 09:56:07;;;;;;;8.23;5.28;;;;;;;;;;5059047;28;20418;-81
2023/03/06 09:58:36;;;;;;;9.13;6.57;;;;;;;;;;5062690;28;20423;-81
2023/03/06 10:01:04;;;;;;;8.05;6.10;;;;;;;;;;5061611;28;20422;-80
2023/03/06 10:03:32;;;;;;;8.57;6.53;;;;;;;;;;5062757;28;20416;-81
2023/03/06 10:06:02;;;;;;;8.63;6.40;;;;;;;;;;5062873;28;20419;-81
2023/03/06 10:08:31;;;;;;;8.50;5.90;;;;;;;;;;5060727;28;20431;-81
2023/03/06 10:11:00;;;;;;;8.63;6.60;;;;;;;;;;5059775;28;20426;-81
2023/03/06 10:13:29;;;;;;;13.90;9.15;;;;;;;;;;5058734;28;20423;-81
2023/03/06 10:16:01;;;;;;;9.90;7.07;;;;;;;;;;5063255;28;20413;-81
2023/03/06 10:18:27;;;;;;;10.55;7.10;;;;;;;;;;5063920;28;20431;-81
2023/03/06 10:20:57;;;;;;;11.25;6.70;;;;;;;;;;5061504;28;20791;-81
2023/03/06 10:23:31;;;;;;;19.65;12.50;;;;;;;;;;5062124;28;20432;-81
2023/03/06 10:26:00;;;;;;;21.00;12.05;;;;;;;;;;5061541;28;20420;-81
2023/03/06 10:28:30;;;;;;;18.15;12.30;;;;;;;;;;5065671;28;20439;-81
2023/03/06 10:30:59;;;;;;;18.23;13.07;;;;;;;;;;5063887;28;20440;-81
2023/03/06 10:33:33;;;;;;;17.40;11.73;;;;;;;;;;5069337;28;20429;-81
2023/03/06 10:35:59;;;;;;;16.73;11.63;;;;;;;;;;5062299;28;20413;-80
2023/03/06 10:38:26;;;;;;;16.85;10.52;;;;;;;;;;5065310;28;20426;-81
2023/03/06 10:41:07;;;;;;;16.10;12.20;;;;;;;;;;5062371;28;20776;-81
2023/03/06 10:43:33;;;;;;;18.42;11.20;;;;;;;;;;5065488;28;20428;-81
2023/03/06 10:46:00;;;;;;;16.52;11.90;;;;;;;;;;5066199;28;20432;-81
2023/03/06 10:48:28;;;;;;;18.20;10.88;;;;;;;;;;5063356;28;20428;-82
2023/03/06 10:51:09;;;;;;;20.10;12.38;;;;;;;;;;5062265;28;20444;-81
2023/03/06 10:53:35;;;;;;;14.18;10.45;;;;;;;;;;5066598;28;20433;-82
2023/03/06 10:56:03;;;;;;;16.43;10.43;;;;;;;;;;5062270;28;20419;-82
2023/03/06 10:58:31;;;;;;;15.10;10.17;;;;;;;;;;5064590;28;20489;-82
2023/03/06 11:01:02;;;;;;;15.27;10.73;;;;;;;;;;5065637;28;20413;-81
2023/03/06 11:03:29;;;;;;;15.00;9.00;;;;;;;;;;5063503;28;20431;-81
2023/03/06 11:05:57;;;;;;;13.27;9.00;;;;;;;;;;5063747;28;20439;-81
2023/03/06 11:08:24;;;;;;;9.95;8.02;;;;;;;;;;5064394;28;20423;-80
2023/03/06 11:10:57;;;;;;;10.88;7.10;;;;;;;;;;5062023;28;20438;-81
2023/03/06 11:13:25;;;;;;;9.98;6.60;;;;;;;;;;5060666;28;20413;-80
2023/03/06 11:15:57;;;;;;;10.95;6.90;;;;;;;;;;5065201;28;20424;-80
2023/03/06 11:18:27;;;;;;;9.45;6.47;;;;;;;;;;5061905;28;20432;-81
2023/03/06 11:20:54;;;;;;;10.90;6.80;;;;;;;;;;5060837;28;20429;-81
2023/03/06 11:23:23;;;;;;;11.63;7.15;;;;;;;;;;5066687;28;20419;-80
2023/03/06 11:25:52;;;;;;;9.35;6.43;;;;;;;;;;5064046;28;20915;-80
2023/03/06 11:28:21;;;;;;;8.48;5.60;;;;;;;;;;5064823;28;20416;-81
2023/03/06 11:30:49;;;;;;;7.70;5.60;;;;;;;;;;5062914;28;20413;-80
2023/03/06 11:33:20;;;;;;;8.38;5.57;;;;;;;;;;5060718;28;20423;-81
2023/03/06 11:35:50;;;;;;;7.40;5.55;;;;;;;;;;5064866;28;20416;-81
2023/03/06 11:38:19;;;;;;;8.60;5.90;;;;;;;;;;5064367;28;20431;-80
2023/03/06 11:40:49;;;;;;;8.85;5.78;;;;;;;;;;5063106;28;20436;-80
2023/03/06 11:43:19;;;;;;;9.77;5.55;;;;;;;;;;5062916;28;20435;-81
2023/03/06 11:45:47;;;;;;;9.20;5.40;;;;;;;;;;5063715;28;20422;-79
2023/03/06 11:48:22;;;;;;;8.43;5.50;;;;;;;;;;5063934;28;20411;-79
2023/03/06 11:50:49;;;;;;;9.75;6.03;;;;;;;;;;5063663;28;20786;-79
2023/03/06 11:53:17;;;;;;;8.50;5.82;;;;;;;;;;5062236;28;20533;-80
2023/03/06 11:55:46;;;;;;;9.55;6.70;;;;;;;;;;5062370;28;20423;-79
2023/03/06 11:58:27;;;;;;;7.72;5.50;;;;;;;;;;5061746;28;20452;-79
2023/03/06 12:00:59;;;;;;;8.30;6.00;;;;;;;;;;5053608;28;20456;-79
2023/03/06 12:03:46;;;;;;;7.65;5.90;;;;;;;;;;5061857;28;20923;-79
2023/03/06 12:06:19;;;;;;;10.70;5.00;;;;;;;;;;5058130;28;20416;-79
2023/03/06 12:08:53;;;;;;;8.68;5.25;;;;;;;;;;5058773;28;20429;-79
2023/03/06 12:11:23;;;;;;;9.43;4.70;;;;;;;;;;5060028;28;20425;-79
2023/03/06 12:14:00;;;;;;;5.82;4.38;;;;;;;;;;5060517;28;20412;-79
2023/03/06 12:16:32;;;;;;;4.88;4.30;;;;;;;;;;5062601;28;20432;-79
2023/03/06 12:19:04;;;;;;;6.22;4.05;;;;;;;;;;5063660;28;20493;-80
2023/03/06 12:21:33;;;;;;;5.53;3.83;;;;;;;;;;5062619;28;20920;-79
2023/03/06 12:24:17;;;;;;;5.90;4.03;;;;;;;;;;5061603;28;20438;-79
2023/03/06 12:26:57;;;;;;;6.72;4.35;;;;;;;;;;5056610;28;20902;-79
2023/03/06 12:29:32;;;;;;;6.63;4.07;;;;;;;;;;5064724;28;20411;-80
2023/03/06 12:32:07;;;;;;;6.55;3.90;;;;;;;;;;5060930;28;20481;-80
2023/03/06 12:34:39;;;;;;;6.50;3.80;;;;;;;;;;5058474;28;20431;-80
2023/03/06 12:37:16;;;;;;;5.95;3.40;;;;;;;;;;5061141;28;20781;-80
2023/03/06 12:39:49;;;;;;;7.63;3.95;;;;;;;;;;5060094;28;20429;-80
2023/03/06 12:42:22;;;;;;;5.45;3.80;;;;;;;;;;5065126;28;20434;-80
2023/03/06 12:44:56;;;;;;;5.45;2.85;;;;;;;;;;5063541;28;20400;-80
2023/03/06 12:47:25;;;;;;;3.80;2.60;;;;;;;;;;5061838;28;20413;-80
2023/03/06 12:49:54;;;;;;;5.43;2.63;;;;;;;;;;5061909;28;20420;-80
2023/03/06 12:52:23;;;;;;;6.55;2.50;;;;;;;;;;5062986;28;20515;-80
2023/03/06 12:54:50;;;;;;;4.13;2.10;;;;;;;;;;5065246;28;20407;-80
2023/03/06 12:57:16;;;;;;;4.50;1.70;;;;;;;;;;5064365;28;20416;-80
2023/03/06 12:59:46;;;;;;;3.33;2.00;;;;;;;;;;5057837;28;20423;-79
2023/03/06 13:02:31;;;;;;;4.80;1.90;;;;;;;;;;5058456;28;20446;-79
2023/03/06 13:05:12;;;;;;;4.97;2.13;;;;;;;;;;5060456;28;20411;-80
2023/03/06 13:07:54;;;;;;;4.32;1.92;;;;;;;;;;5060556;28;20437;-80
2023/03/06 13:10:23;;;;;;;3.88;1.20;;;;;;;;;;5060066;28;20503;-80
2023/03/06 13:12:54;;;;;;;4.72;1.70;;;;;;;;;;5062364;28;20474;-80
2023/03/06 13:15:33;;;;;;;3.60;1.20;;;;;;;;;;5060322;28;20419;-80
2023/03/06 13:18:00;;;;;;;2.53;1.30;;;;;;;;;;5061052;28;20429;-80
2023/03/06 13:20:29;;;;;;;4.10;1.65;;;;;;;;;;5062993;28;20409;-80
2023/03/06 13:22:57;;;;;;;3.28;1.13;;;;;;;;;;5062419;28;20951;-80
2023/03/06 13:25:36;;;;;;;2.50;1.38;;;;;;;;;;5057908;28;20425;-80
2023/03/06 13:28:03;;;;;;;3.17;1.05;;;;;;;;;;5063003;28;20413;-79
2023/03/06 13:30:43;;;;;;;1.90;1.30;;;;;;;;;;5061867;28;20412;-80
2023/03/06 13:33:25;;;;;;;2.10;0.93;;;;;;;;;;5060155;28;20435;-80
2023/03/06 13:35:52;;;;;;;2.70;1.05;;;;;;;;;;5057480;28;20424;-80
2023/03/06 13:38:53;;;;;;;2.45;1.08;;;;;;;;;;5060885;28;20412;-80
2023/03/06 13:41:36;;;;;;;2.75;1.30;;;;;;;;;;5062070;28;20493;-79
2023/03/06 13:44:06;;;;;;;5.53;1.52;;;;;;;;;;5064130;28;20425;-80
2023/03/06 13:46:34;;;;;;;3.78;2.05;;;;;;;;;;5062470;28;20416;-80
2023/03/06 13:49:05;;;;;;;3.80;1.30;;;;;;;;;;5057969;28;20505;-79
2023/03/06 13:51:34;;;;;;;2.85;1.20;;;;;;;;;;5060269;28;20421;-80
2023/03/06 13:54:23;;;;;;;3.53;1.23;;;;;;;;;;5059702;28;20419;-80
2023/03/06 13:57:16;;;;;;;3.65;1.17;;;;;;;;;;5057603;28;20938;-80
2023/03/06 13:59:51;;;;;;;2.17;1.30;;;;;;;;;;5065651;28;20985;-80
2023/03/06 14:02:34;;;;;;;2.85;1.20;;;;;;;;;;5062923;28;20435;-80
2023/03/06 14:05:01;;;;;;;3.03;1.58;;;;;;;;;;5060977;28;20416;-79
2023/03/06 14:07:29;;;;;;;3.53;1.30;;;;;;;;;;5065095;28;21736;-80
2023/03/06 14:10:01;;;;;;;2.65;1.20;;;;;;;;;;5065569;28;20899;-79
2023/03/06 14:12:31;;;;;;;2.47;1.00;;;;;;;;;;5063470;28;20803;-80
2023/03/06 14:14:59;;;;;;;4.00;1.50;;;;;;;;;;5065387;28;20415;-80
2023/03/06 14:17:28;;;;;;;5.57;1.83;;;;;;;;;;5062054;28;20483;-80
2023/03/06 14:19:56;;;;;;;3.90;1.70;;;;;;;;;;5062715;28;20432;-80
2023/03/06 14:22:24;;;;;;;3.10;1.42;;;;;;;;;;5067527;28;20417;-84
2023/03/06 14:24:58;;;;;;;1.60;0.83;;;;;;;;;;5060406;28;20925;-80
2023/03/06 14:27:39;;;;;;;3.00;1.08;;;;;;;;;;5065596;28;20888;-80
2023/03/06 14:30:07;;;;;;;2.50;0.93;;;;;;;;;;5063695;28;20461;-80
2023/03/06 14:32:33;;;;;;;2.45;0.90;;;;;;;;;;5066026;28;20418;-80
2023/03/06 14:35:00;;;;;;;2.78;0.77;;;;;;;;;;5063464;28;20423;-80
2023/03/06 14:37:27;;;;;;;3.00;0.90;;;;;;;;;;5063838;28;20425;-80
2023/03/06 14:39:55;;;;;;;3.00;0.82;;;;;;;;;;5063236;28;20400;-80
2023/03/06 14:42:23;;;;;;;2.15;0.90;;;;;;;;;;5064196;28;20431;-80
2023/03/06 14:44:59;;;;;;;5.13;1.17;;;;;;;;;;5063513;28;20419;-80
2023/03/06 14:47:27;;;;;;;3.80;0.90;;;;;;;;;;5062750;28;20417;-80
2023/03/06 14:50:12;;;;;;;2.88;1.00;;;;;;;;;;5061597;28;20417;-80